createdAt,value
2017-08-11T00:02:11.011Z,92.80
2017-08-11T00:04:39.255Z,92.70
2017-08-11T00:07:06.743Z,92.80
2017-08-11T00:09:34.964Z,93.00
2017-08-11T00:12:02.429Z,93.00
2017-08-11T00:14:29.902Z,92.90
2017-08-11T00:16:57.362Z,92.80
2017-08-11T00:19:24.847Z,92.80
2017-08-11T00:21:53.065Z,92.90
2017-08-11T00:24:20.540Z,92.90
2017-08-11T00:26:48.011Z,92.90
2017-08-11T00:29:15.503Z,92.80
2017-08-11T00:31:42.983Z,92.80
2017-08-11T00:34:10.455Z,92.90
2017-08-11T00:36:37.923Z,92.90
2017-08-11T00:39:05.398Z,92.80
2017-08-11T00:41:32.860Z,92.90
2017-08-11T00:44:00.314Z,93.00
2017-08-11T00:46:27.791Z,93.10
2017-08-11T00:48:56.022Z,93.20
2017-08-11T00:51:23.495Z,93.50
2017-08-11T00:53:50.956Z,93.20
2017-08-11T00:56:18.411Z,93.30
2017-08-11T00:58:45.889Z,93.20
2017-08-11T01:01:14.139Z,93.30
2017-08-11T01:03:41.611Z,93.30
2017-08-11T01:06:09.851Z,93.20
2017-08-11T01:08:37.311Z,93.20
2017-08-11T01:11:04.782Z,93.40
2017-08-11T01:13:32.254Z,93.40
2017-08-11T01:16:00.499Z,93.40
2017-08-11T01:18:27.966Z,93.40
2017-08-11T01:20:55.458Z,93.40
2017-08-11T01:23:23.690Z,93.40
2017-08-11T01:25:51.151Z,93.40
2017-08-11T01:28:18.627Z,93.40
2017-08-11T01:30:46.859Z,93.80
2017-08-11T01:33:14.339Z,93.40
2017-08-11T01:35:41.803Z,93.50
2017-08-11T01:38:09.282Z,93.60
2017-08-11T01:40:37.503Z,93.50
2017-08-11T01:43:04.980Z,93.50
2017-08-11T01:45:32.451Z,93.50
2017-08-11T01:47:59.914Z,93.40
2017-08-11T01:50:28.156Z,93.40
2017-08-11T01:52:55.615Z,93.50
2017-08-11T01:55:23.083Z,93.60
2017-08-11T01:57:50.551Z,93.60
2017-08-11T02:00:18.007Z,93.60
2017-08-11T02:02:45.482Z,93.60
2017-08-11T02:05:13.717Z,93.60
2017-08-11T02:07:41.191Z,93.60
2017-08-11T02:10:08.647Z,93.70
2017-08-11T02:12:36.126Z,93.60
2017-08-11T02:15:04.351Z,93.60
2017-08-11T02:17:31.823Z,93.60
2017-08-11T02:19:59.306Z,93.40
2017-08-11T02:22:27.531Z,93.90
2017-08-11T02:24:55.170Z,93.90
2017-08-11T02:27:22.635Z,93.60
2017-08-11T02:29:50.114Z,93.60
2017-08-11T02:32:17.583Z,93.60
2017-08-11T02:34:45.056Z,93.70
2017-08-11T02:37:12.535Z,93.60
2017-08-11T02:39:40.786Z,93.70
2017-08-11T02:42:08.258Z,93.70
2017-08-11T02:44:36.500Z,93.60
2017-08-11T02:47:03.963Z,93.60
2017-08-11T02:49:31.443Z,93.60
2017-08-11T02:51:59.667Z,94.00
2017-08-11T02:54:27.143Z,93.60
2017-08-11T02:56:54.603Z,93.80
2017-08-11T02:59:22.078Z,93.80
2017-08-11T03:01:49.543Z,93.90
2017-08-11T03:04:17.794Z,93.80
2017-08-11T03:06:45.267Z,93.80
2017-08-11T03:09:12.738Z,93.80
2017-08-11T03:11:40.966Z,93.80
2017-08-11T03:14:08.442Z,93.80
2017-08-11T03:16:35.919Z,93.80
2017-08-11T03:19:04.143Z,93.90
2017-08-11T03:21:31.595Z,93.80
2017-08-11T03:23:59.076Z,93.80
2017-08-11T03:26:26.551Z,93.70
2017-08-11T03:28:54.002Z,93.90
2017-08-11T03:31:21.492Z,93.90
2017-08-11T03:33:49.710Z,93.90
2017-08-11T03:36:17.189Z,93.90
2017-08-11T03:38:44.647Z,93.80
2017-08-11T03:41:12.124Z,93.80
2017-08-11T03:43:40.356Z,93.90
2017-08-11T03:46:07.810Z,93.90
2017-08-11T03:48:35.295Z,94.00
2017-08-11T03:51:02.753Z,94.00
2017-08-11T03:53:30.234Z,94.00
2017-08-11T03:55:57.699Z,94.00
2017-08-11T03:58:25.179Z,94.00
2017-08-11T04:00:52.646Z,94.00
2017-08-11T04:03:20.106Z,94.00
2017-08-11T04:05:47.591Z,94.00
2017-08-11T04:08:15.048Z,94.00
2017-08-11T04:10:42.527Z,94.00
2017-08-11T04:13:10.757Z,94.00
2017-08-11T04:15:38.215Z,94.00
2017-08-11T04:18:05.691Z,94.00
2017-08-11T04:20:33.158Z,94.00
2017-08-11T04:23:01.403Z,94.00
2017-08-11T04:25:28.868Z,94.00
2017-08-11T04:27:56.339Z,93.90
2017-08-11T04:30:23.815Z,94.00
2017-08-11T04:32:52.038Z,94.00
2017-08-11T04:35:19.515Z,94.00
2017-08-11T04:37:46.974Z,94.00
2017-08-11T04:40:14.454Z,94.00
2017-08-11T04:42:42.678Z,94.10
2017-08-11T04:45:10.141Z,94.40
2017-08-11T04:47:37.618Z,94.00
2017-08-11T04:50:05.099Z,93.90
2017-08-11T04:52:33.330Z,94.00
2017-08-11T04:55:00.806Z,94.00
2017-08-11T04:57:28.272Z,94.00
2017-08-11T04:59:55.751Z,93.90
2017-08-11T05:02:23.206Z,93.90
2017-08-11T05:04:50.678Z,94.00
2017-08-11T05:07:18.138Z,94.10
2017-08-11T05:09:45.627Z,94.10
2017-08-11T05:12:13.093Z,94.10
2017-08-11T05:14:40.555Z,94.00
2017-08-11T05:17:08.027Z,94.00
2017-08-11T05:19:36.259Z,93.80
2017-08-11T05:22:03.738Z,93.90
2017-08-11T05:24:31.206Z,93.90
2017-08-11T05:26:58.667Z,93.90
2017-08-11T05:29:26.171Z,94.10
2017-08-11T05:31:53.630Z,94.10
2017-08-11T05:34:21.116Z,94.10
2017-08-11T05:36:48.574Z,94.00
2017-08-11T05:39:16.026Z,93.90
2017-08-11T05:41:43.511Z,93.80
2017-08-11T05:44:11.835Z,93.90
2017-08-11T05:46:39.278Z,93.80
2017-08-11T05:49:06.759Z,93.80
2017-08-11T05:51:34.267Z,93.60
2017-08-11T05:54:02.487Z,93.30
2017-08-11T05:56:29.969Z,93.40
2017-08-11T05:58:57.431Z,93.30
2017-08-11T06:01:24.896Z,93.20
2017-08-11T06:03:52.376Z,93.00
2017-08-11T06:06:19.840Z,92.80
2017-08-11T06:08:47.300Z,93.00
2017-08-11T06:11:14.785Z,92.80
2017-08-11T06:13:42.243Z,92.80
2017-08-11T06:16:09.714Z,92.70
2017-08-11T06:18:37.178Z,92.50
2017-08-11T06:21:04.640Z,92.30
2017-08-11T06:23:32.116Z,91.80
2017-08-11T06:26:00.347Z,91.70
2017-08-11T06:28:27.804Z,91.70
2017-08-11T06:30:55.275Z,91.30
2017-08-11T06:33:22.747Z,91.60
2017-08-11T06:35:50.223Z,91.80
2017-08-11T06:38:18.446Z,92.10
2017-08-11T06:40:45.919Z,92.10
2017-08-11T06:43:13.399Z,92.30
2017-08-11T06:45:41.627Z,92.60
2017-08-11T06:48:09.096Z,92.60
2017-08-11T06:50:36.588Z,92.60
2017-08-11T06:53:04.819Z,92.30
2017-08-11T06:55:32.452Z,92.00
2017-08-11T06:57:59.911Z,92.30
2017-08-11T07:00:27.391Z,91.90
2017-08-11T07:02:54.851Z,91.90
2017-08-11T07:05:22.332Z,91.90
2017-08-11T07:07:49.787Z,91.60
2017-08-11T07:10:17.258Z,91.50
2017-08-11T07:12:45.494Z,90.90
2017-08-11T07:15:12.963Z,90.80
2017-08-11T07:17:40.439Z,90.80
2017-08-11T07:20:07.904Z,90.70
2017-08-11T07:22:36.132Z,90.80
2017-08-11T07:25:03.602Z,90.80
2017-08-11T07:27:31.071Z,90.50
2017-08-11T07:29:58.543Z,90.60
2017-08-11T07:32:26.007Z,90.90
2017-08-11T07:34:54.251Z,90.30
2017-08-11T07:37:21.730Z,90.30
2017-08-11T07:39:49.191Z,90.10
2017-08-11T07:42:17.434Z,89.70
2017-08-11T07:44:44.892Z,89.60
2017-08-11T07:47:12.371Z,88.90
2017-08-11T07:49:39.846Z,87.60
2017-08-11T07:52:08.075Z,85.80
2017-08-11T07:54:35.555Z,85.80
2017-08-11T07:57:03.034Z,84.10
2017-08-11T07:59:31.274Z,84.30
2017-08-11T08:01:58.742Z,84.30
2017-08-11T08:04:26.207Z,84.00
2017-08-11T08:06:53.688Z,83.20
2017-08-11T08:09:21.160Z,82.90
2017-08-11T08:11:48.634Z,82.60
2017-08-11T08:14:16.095Z,82.70
2017-08-11T08:16:43.556Z,82.00
2017-08-11T08:19:11.031Z,81.50
2017-08-11T08:21:38.510Z,80.50
2017-08-11T08:24:06.759Z,81.50
2017-08-11T08:26:34.222Z,81.50
2017-08-11T08:29:01.697Z,80.50
2017-08-11T08:31:29.935Z,79.80
2017-08-11T08:33:57.401Z,79.70
2017-08-11T08:36:24.870Z,78.10
2017-08-11T08:38:52.347Z,77.50
2017-08-11T08:41:19.837Z,78.40
2017-08-11T08:43:47.316Z,78.00
2017-08-11T08:46:14.772Z,75.60
2017-08-11T08:48:42.245Z,75.80
2017-08-11T08:51:09.710Z,75.70
2017-08-11T08:53:37.178Z,76.10
2017-08-11T08:56:05.418Z,76.10
2017-08-11T08:58:32.875Z,76.00
2017-08-11T09:01:00.359Z,76.10
2017-08-11T09:03:27.811Z,74.40
2017-08-11T09:05:55.300Z,73.10
2017-08-11T09:08:22.758Z,72.10
2017-08-11T09:10:50.240Z,73.00
2017-08-11T09:13:17.801Z,74.10
2017-08-11T09:15:45.255Z,73.20
2017-08-11T09:18:12.738Z,73.20
2017-08-11T09:20:40.200Z,72.80
2017-08-11T09:23:07.651Z,74.40
2017-08-11T09:25:48.726Z,76.80
2017-08-11T09:28:28.037Z,76.80
2017-08-11T09:31:16.407Z,76.60
2017-08-11T09:33:55.646Z,76.40
2017-08-11T09:36:31.107Z,76.30
2017-08-11T09:38:59.350Z,76.70
2017-08-11T09:41:26.798Z,76.70
2017-08-11T09:43:54.275Z,75.90
2017-08-11T09:46:21.743Z,76.00
2017-08-11T09:48:49.203Z,77.20
2017-08-11T09:51:16.694Z,76.30
2017-08-11T09:53:44.147Z,75.50
2017-08-11T09:56:11.621Z,74.50
2017-08-11T09:58:39.079Z,73.40
2017-08-11T10:01:06.559Z,71.00
2017-08-11T10:03:34.027Z,71.90
2017-08-11T10:06:01.482Z,71.30
2017-08-11T10:08:28.951Z,70.50
2017-08-11T10:10:56.418Z,67.70
2017-08-11T10:13:24.647Z,64.00
2017-08-11T10:15:52.123Z,64.00
2017-08-11T10:18:19.594Z,65.10
2017-08-11T10:20:47.078Z,65.80
2017-08-11T10:23:14.535Z,67.60
2017-08-11T10:25:42.011Z,70.50
2017-08-11T10:28:09.474Z,73.00
2017-08-11T10:30:36.954Z,74.60
2017-08-11T10:33:04.438Z,74.90
2017-08-11T10:35:31.903Z,76.30
2017-08-11T10:38:00.151Z,76.90
2017-08-11T10:40:27.603Z,76.20
2017-08-11T10:42:55.082Z,76.80
2017-08-11T10:45:22.546Z,76.50
2017-08-11T10:47:50.779Z,73.90
2017-08-11T10:50:18.254Z,73.90
2017-08-11T10:52:45.715Z,73.00
2017-08-11T10:55:13.203Z,71.80
2017-08-11T10:57:40.678Z,72.50
2017-08-11T11:00:08.123Z,73.20
2017-08-11T11:02:35.603Z,72.40
2017-08-11T11:05:03.063Z,72.70
2017-08-11T11:07:30.544Z,73.70
2017-08-11T11:09:58.020Z,74.50
2017-08-11T11:12:25.471Z,74.50
2017-08-11T11:14:52.931Z,74.20
2017-08-11T11:17:20.411Z,73.50
2017-08-11T11:19:48.644Z,73.10
2017-08-11T11:22:16.095Z,73.10
2017-08-11T11:24:43.582Z,73.00
2017-08-11T11:27:11.807Z,73.90
2017-08-11T11:29:39.262Z,73.90
2017-08-11T11:32:06.739Z,73.30
2017-08-11T11:34:34.191Z,73.30
2017-08-11T11:37:01.690Z,73.20
2017-08-11T11:39:29.923Z,73.00
2017-08-11T11:41:57.387Z,73.00
2017-08-11T11:44:24.856Z,73.30
2017-08-11T11:46:52.311Z,72.70
2017-08-11T11:49:19.796Z,72.50
2017-08-11T11:51:48.018Z,67.90
2017-08-11T11:54:15.475Z,67.90
2017-08-11T11:56:42.967Z,66.50
2017-08-11T11:59:11.211Z,62.70
2017-08-11T12:01:44.887Z,63.10
2017-08-11T12:04:12.338Z,63.40
2017-08-11T12:06:39.788Z,61.80
2017-08-11T12:09:07.263Z,59.60
2017-08-11T12:11:34.722Z,58.50
2017-08-11T12:14:02.198Z,56.90
2017-08-11T12:16:29.674Z,57.90
2017-08-11T12:18:57.144Z,61.50
2017-08-11T12:21:24.599Z,61.60
2017-08-11T12:23:52.076Z,63.90
2017-08-11T12:26:19.542Z,64.70
2017-08-11T12:28:46.996Z,65.90
2017-08-11T12:31:14.475Z,67.00
2017-08-11T12:33:41.930Z,67.70
2017-08-11T12:36:09.386Z,66.80
2017-08-11T12:38:36.868Z,66.10
2017-08-11T12:41:04.345Z,65.80
2017-08-11T12:43:32.588Z,66.30
2017-08-11T12:46:00.049Z,66.20
2017-08-11T12:48:27.519Z,67.70
2017-08-11T12:50:55.743Z,67.60
2017-08-11T12:53:23.194Z,67.60
2017-08-11T12:55:50.667Z,67.50
2017-08-11T12:58:18.122Z,68.80
2017-08-11T13:00:45.602Z,68.60
2017-08-11T13:03:13.061Z,68.70
2017-08-11T13:05:40.519Z,68.70
2017-08-11T13:08:07.987Z,68.10
2017-08-11T13:10:36.234Z,67.00
2017-08-11T13:13:03.710Z,67.00
2017-08-11T13:15:31.190Z,68.20
2017-08-11T13:17:58.642Z,67.60
2017-08-11T13:20:26.123Z,67.20
2017-08-11T13:22:53.575Z,66.80
2017-08-11T13:25:21.036Z,68.40
2017-08-11T13:27:48.507Z,67.70
2017-08-11T13:30:15.974Z,68.10
2017-08-11T13:32:43.447Z,68.50
2017-08-11T13:35:10.911Z,68.50
2017-08-11T13:37:38.380Z,69.50
2017-08-11T13:40:05.838Z,70.70
2017-08-11T13:42:34.075Z,71.50
2017-08-11T13:45:01.558Z,71.50
2017-08-11T13:47:29.019Z,71.80
2017-08-11T13:49:57.286Z,72.00
2017-08-11T13:52:24.737Z,72.40
2017-08-11T13:54:52.204Z,72.00
2017-08-11T13:57:19.685Z,71.40
2017-08-11T13:59:47.899Z,70.00
2017-08-11T14:02:15.382Z,69.90
2017-08-11T14:04:42.849Z,69.30
2017-08-11T14:07:10.307Z,68.80
2017-08-11T14:09:38.560Z,68.20
2017-08-11T14:12:06.020Z,68.00
2017-08-11T14:14:33.484Z,67.80
2017-08-11T14:17:00.946Z,68.40
2017-08-11T14:19:28.399Z,66.70
2017-08-11T14:21:55.870Z,66.40
2017-08-11T14:24:29.943Z,66.00
2017-08-11T14:26:57.414Z,65.40
2017-08-11T14:29:24.862Z,63.20
2017-08-11T14:31:52.339Z,64.30
2017-08-11T14:34:19.819Z,63.90
2017-08-11T14:36:48.046Z,63.30
2017-08-11T14:39:15.535Z,63.20
2017-08-11T14:41:43.770Z,62.20
2017-08-11T14:44:11.247Z,62.20
2017-08-11T14:46:38.709Z,62.90
2017-08-11T14:49:06.167Z,63.40
2017-08-11T14:51:33.643Z,62.50
2017-08-11T14:54:01.875Z,62.30
2017-08-11T14:56:29.346Z,62.30
2017-08-11T14:58:56.811Z,63.20
2017-08-11T15:01:24.274Z,63.40
2017-08-11T15:03:51.756Z,63.10
2017-08-11T15:06:19.238Z,63.40
2017-08-11T15:08:46.694Z,63.20
2017-08-11T15:11:14.158Z,64.10
2017-08-11T15:13:41.631Z,64.00
2017-08-11T15:16:09.098Z,66.50
2017-08-11T15:18:36.559Z,66.80
2017-08-11T15:21:04.031Z,65.90
2017-08-11T15:23:32.243Z,66.10
2017-08-11T15:25:59.710Z,65.90
2017-08-11T15:28:27.162Z,66.00
2017-08-11T15:30:54.642Z,67.60
2017-08-11T15:33:22.139Z,67.70
2017-08-11T15:35:50.382Z,68.10
2017-08-11T15:38:17.835Z,67.90
2017-08-11T15:40:45.295Z,68.90
2017-08-11T15:43:12.941Z,70.00
2017-08-11T15:45:40.409Z,67.20
2017-08-11T15:48:07.875Z,66.10
2017-08-11T15:50:35.347Z,65.60
2017-08-11T15:53:02.834Z,66.10
2017-08-11T15:55:30.291Z,63.40
2017-08-11T15:57:57.766Z,64.30
2017-08-11T16:00:25.263Z,63.90
2017-08-11T16:02:52.734Z,64.60
2017-08-11T16:05:20.988Z,65.00
2017-08-11T16:07:48.447Z,64.90
2017-08-11T16:10:15.924Z,64.00
2017-08-11T16:12:44.143Z,64.00
2017-08-11T16:15:11.609Z,64.00
2017-08-11T16:17:39.082Z,63.40
2017-08-11T16:20:06.548Z,63.10
2017-08-11T16:22:34.003Z,64.60
2017-08-11T16:25:01.471Z,65.50
2017-08-11T16:27:28.973Z,66.30
2017-08-11T16:29:56.419Z,67.40
2017-08-11T16:32:23.895Z,66.90
2017-08-11T16:34:51.359Z,67.10
2017-08-11T16:37:18.812Z,67.20
2017-08-11T16:39:46.282Z,66.40
2017-08-11T16:42:13.755Z,66.70
2017-08-11T16:44:41.234Z,66.80
2017-08-11T16:47:09.482Z,65.90
2017-08-11T16:49:36.947Z,65.90
2017-08-11T16:52:04.418Z,66.50
2017-08-11T16:54:32.647Z,66.10
2017-08-11T16:57:00.127Z,66.00
2017-08-11T16:59:27.582Z,66.70
2017-08-11T17:01:55.067Z,66.40
2017-08-11T17:04:23.303Z,66.20
2017-08-11T17:06:50.771Z,66.20
2017-08-11T17:09:18.219Z,65.60
2017-08-11T17:11:45.705Z,66.60
2017-08-11T17:14:13.947Z,68.10
2017-08-11T17:16:41.426Z,67.40
2017-08-11T17:19:08.888Z,67.60
2017-08-11T17:21:36.335Z,67.20
2017-08-11T17:24:03.815Z,68.00
2017-08-11T17:26:32.051Z,67.90
2017-08-11T17:28:59.521Z,67.90
2017-08-11T17:31:26.998Z,68.80
2017-08-11T17:33:55.246Z,68.30
2017-08-11T17:36:22.709Z,68.00
2017-08-11T17:38:50.187Z,68.70
2017-08-11T17:41:18.407Z,69.80
2017-08-11T17:43:45.870Z,69.70
2017-08-11T17:46:13.343Z,69.70
2017-08-11T17:48:40.794Z,69.60
2017-08-11T17:51:08.267Z,69.60
2017-08-11T17:53:35.742Z,70.10
2017-08-11T17:56:03.987Z,70.90
2017-08-11T17:58:31.458Z,70.90
2017-08-11T18:00:58.931Z,71.30
2017-08-11T18:03:27.184Z,72.00
2017-08-11T18:05:54.658Z,71.90
2017-08-11T18:08:22.916Z,73.10
2017-08-11T18:10:50.374Z,73.00
2017-08-11T18:13:17.834Z,73.00
2017-08-11T18:15:45.315Z,73.30
2017-08-11T18:18:13.568Z,73.80
2017-08-11T18:20:41.036Z,73.70
2017-08-11T18:23:09.303Z,74.20
2017-08-11T18:25:37.531Z,75.30
2017-08-11T18:28:05.006Z,74.50
2017-08-11T18:30:32.489Z,75.10
2017-08-11T18:32:59.946Z,74.90
2017-08-11T18:35:28.178Z,75.30
2017-08-11T18:37:55.652Z,75.30
2017-08-11T18:40:23.115Z,75.00
2017-08-11T18:42:50.591Z,75.50
2017-08-11T18:45:18.816Z,75.50
2017-08-11T18:47:46.287Z,75.40
2017-08-11T18:50:13.745Z,75.60
2017-08-11T18:52:41.250Z,75.70
2017-08-11T18:55:09.487Z,75.40
2017-08-11T18:57:36.939Z,76.10
2017-08-11T19:00:04.420Z,75.70
2017-08-11T19:02:31.866Z,76.40
2017-08-11T19:04:59.397Z,77.30
2017-08-11T19:07:27.001Z,77.30
2017-08-11T19:09:55.258Z,78.90
2017-08-11T19:12:22.743Z,78.10
2017-08-11T19:14:50.980Z,78.60
2017-08-11T19:17:18.470Z,78.60
2017-08-11T19:19:47.089Z,78.60
2017-08-11T19:22:14.954Z,78.60
2017-08-11T19:24:42.460Z,78.90
2017-08-11T19:27:09.958Z,79.20
2017-08-11T19:29:37.474Z,79.20
2017-08-11T19:32:04.964Z,79.00
2017-08-11T19:34:32.748Z,78.80
2017-08-11T19:37:00.402Z,79.40
2017-08-11T19:39:28.274Z,78.50
2017-08-11T19:41:55.863Z,78.20
2017-08-11T19:44:23.698Z,78.40
2017-08-11T19:46:51.566Z,78.50
2017-08-11T19:49:19.168Z,78.60
2017-08-11T19:51:46.991Z,78.10
2017-08-11T19:54:14.957Z,77.50
2017-08-11T19:56:42.556Z,77.50
2017-08-11T19:59:10.114Z,77.00
2017-08-11T20:01:37.940Z,76.10
2017-08-11T20:04:05.568Z,75.70
2017-08-11T20:06:33.365Z,75.60
2017-08-11T20:09:00.970Z,75.00
2017-08-11T20:11:28.549Z,75.30
2017-08-11T20:13:56.347Z,75.00
2017-08-11T20:16:24.026Z,74.60
2017-08-11T20:18:51.657Z,74.80
2017-08-11T20:21:19.142Z,74.80
2017-08-11T20:23:46.631Z,75.00
2017-08-11T20:26:14.220Z,74.80
2017-08-11T20:28:41.706Z,74.60
2017-08-11T20:31:09.234Z,74.70
2017-08-11T20:33:36.747Z,74.90
2017-08-11T20:36:04.206Z,74.90
2017-08-11T20:38:31.698Z,74.50
2017-08-11T20:40:59.933Z,73.90
2017-08-11T20:43:27.430Z,73.90
2017-08-11T20:45:55.650Z,73.20
2017-08-11T20:48:23.139Z,73.10
2017-08-11T20:50:50.596Z,72.90
2017-08-11T20:53:18.073Z,72.80
2017-08-11T20:55:46.290Z,73.10
2017-08-11T20:58:13.748Z,73.00
2017-08-11T21:00:41.219Z,73.40
2017-08-11T21:03:08.685Z,73.20
2017-08-11T21:05:36.169Z,74.10
2017-08-11T21:08:04.392Z,73.70
2017-08-11T21:10:31.871Z,74.00
2017-08-11T21:12:59.336Z,74.90
2017-08-11T21:15:26.799Z,74.90
2017-08-11T21:17:54.274Z,74.60
2017-08-11T21:20:22.503Z,75.60
2017-08-11T21:22:49.975Z,75.60
2017-08-11T21:25:17.446Z,75.80
2017-08-11T21:27:45.680Z,76.50
2017-08-11T21:30:13.146Z,75.90
2017-08-11T21:32:40.627Z,77.20
2017-08-11T21:35:08.090Z,77.20
2017-08-11T21:37:35.579Z,77.70
2017-08-11T21:40:03.037Z,78.00
2017-08-11T21:42:30.506Z,78.10
2017-08-11T21:44:57.964Z,77.60
2017-08-11T21:47:25.443Z,79.20
2017-08-11T21:49:52.918Z,78.80
2017-08-11T21:52:20.374Z,79.70
2017-08-11T21:54:47.858Z,79.50
2017-08-11T21:57:16.085Z,79.00
2017-08-11T21:59:43.531Z,78.90
2017-08-11T22:02:11.007Z,79.60
2017-08-11T22:04:38.475Z,80.80
2017-08-11T22:07:05.958Z,80.50
2017-08-11T22:09:34.174Z,79.50
2017-08-11T22:12:01.647Z,79.40
2017-08-11T22:14:29.100Z,79.60
2017-08-11T22:16:56.572Z,79.30
2017-08-11T22:19:24.039Z,79.70
2017-08-11T22:21:51.495Z,78.60
2017-08-11T22:24:19.035Z,77.20
2017-08-11T22:26:46.498Z,79.60
2017-08-11T22:29:13.966Z,79.20
2017-08-11T22:31:42.191Z,78.70
2017-08-11T22:34:09.658Z,78.00
2017-08-11T22:36:37.135Z,77.50
2017-08-11T22:39:04.619Z,76.50
2017-08-11T22:41:32.855Z,77.10
2017-08-11T22:44:00.342Z,76.30
2017-08-11T22:46:27.788Z,76.30
2017-08-11T22:48:55.255Z,76.90
2017-08-11T22:51:23.503Z,77.60
2017-08-11T22:53:50.974Z,77.40
2017-08-11T22:56:18.462Z,78.60
2017-08-11T22:58:46.694Z,78.50
2017-08-11T23:01:14.170Z,78.50
2017-08-11T23:03:41.622Z,79.00
2017-08-11T23:06:09.075Z,78.40
2017-08-11T23:08:36.551Z,77.90
2017-08-11T23:11:04.787Z,77.70
2017-08-11T23:13:32.256Z,77.70
2017-08-11T23:15:59.714Z,78.00
2017-08-11T23:18:27.167Z,78.90
2017-08-11T23:20:54.640Z,80.80
2017-08-11T23:23:22.090Z,79.00
2017-08-11T23:25:49.547Z,78.50
2017-08-11T23:28:17.020Z,77.20
2017-08-11T23:30:45.252Z,76.20
2017-08-11T23:33:12.715Z,76.00
2017-08-11T23:35:40.192Z,76.30
2017-08-11T23:38:07.642Z,76.60
2017-08-11T23:40:35.095Z,75.90
2017-08-11T23:43:02.567Z,76.10
2017-08-11T23:45:30.042Z,76.00
2017-08-11T23:47:57.532Z,76.10
2017-08-11T23:50:25.011Z,76.60
2017-08-11T23:52:52.480Z,76.90
2017-08-11T23:55:19.934Z,76.20
2017-08-11T23:57:47.412Z,75.70
